createdAt,value
2017-01-02T09:59:59.714Z,1031.16
2017-01-02T10:00:59.702Z,1031.1
2017-01-02T10:01:59.690Z,1031.11
2017-01-02T10:02:59.677Z,1031.1
2017-01-02T10:03:59.665Z,1031.14
2017-01-02T10:04:59.653Z,1031.11
2017-01-02T10:05:59.641Z,1031.12
2017-01-02T10:06:59.629Z,1031.03
2017-01-02T10:07:59.615Z,1031.03
2017-01-02T10:08:59.603Z,1031.07
2017-01-02T10:09:59.590Z,1031.06
2017-01-02T10:10:59.579Z,1031.03
2017-01-02T10:11:59.567Z,1030.87
2017-01-02T10:12:59.554Z,1030.82
2017-01-02T10:13:59.541Z,1030.72
2017-01-02T10:14:59.529Z,1030.69
2017-01-02T10:15:59.517Z,1030.73
2017-01-02T10:16:59.505Z,1030.76
2017-01-02T10:17:59.492Z,1030.79
2017-01-02T10:18:59.481Z,1030.74
2017-01-02T10:19:59.468Z,1030.7
2017-01-02T10:20:59.455Z,1030.67
2017-01-02T10:21:59.444Z,1030.68
2017-01-02T10:22:59.431Z,1030.72
2017-01-02T10:23:59.419Z,1030.74
2017-01-02T10:24:59.406Z,1030.76
2017-01-02T10:25:59.394Z,1030.77
2017-01-02T10:26:59.382Z,1030.79
2017-01-02T10:27:59.370Z,1030.86
2017-01-02T10:28:59.357Z,1030.84
2017-01-02T10:29:59.347Z,1030.82
2017-01-02T10:30:59.334Z,1030.82
2017-01-02T10:31:59.321Z,1030.78
2017-01-02T10:32:59.309Z,1030.77
2017-01-02T10:33:59.297Z,1030.76
2017-01-02T10:34:59.285Z,1030.75
2017-01-02T10:35:59.276Z,1030.71
2017-01-02T10:36:59.260Z,1030.73
2017-01-02T10:37:59.249Z,1030.7
2017-01-02T10:38:59.237Z,1030.71
2017-01-02T10:39:59.224Z,1030.65
2017-01-02T10:40:59.213Z,1030.51
2017-01-02T10:41:59.201Z,1030.29
2017-01-02T10:42:59.189Z,1029.98
2017-01-02T10:43:59.177Z,1029.85
2017-01-02T10:44:59.165Z,1029.73
2017-01-02T10:45:59.153Z,1029.59
2017-01-02T10:46:59.141Z,1029.53
2017-01-02T10:47:59.129Z,1029.52
2017-01-02T10:48:59.118Z,1029.53
2017-01-02T10:49:59.106Z,1029.54
2017-01-02T10:50:59.094Z,1029.53
2017-01-02T10:51:59.083Z,1029.54
2017-01-02T10:52:59.072Z,1029.52
2017-01-02T10:53:59.061Z,1029.52
2017-01-02T10:54:59.049Z,1029.46
2017-01-02T10:55:59.038Z,1029.46
2017-01-02T10:56:59.027Z,1029.46
2017-01-02T10:57:59.015Z,1029.49
2017-01-02T10:58:59.004Z,1029.49
2017-01-02T10:59:58.992Z,1029.49
2017-01-02T11:00:58.981Z,1029.5
2017-01-02T11:01:58.970Z,1029.47
2017-01-02T11:02:58.959Z,1029.49
2017-01-02T11:03:58.948Z,1029.53
2017-01-02T11:04:58.936Z,1029.54
2017-01-02T11:05:58.925Z,1029.55
2017-01-02T11:06:58.914Z,1029.52
2017-01-02T11:07:58.903Z,1029.51
2017-01-02T11:08:58.891Z,1029.44
2017-01-02T11:09:58.880Z,1029.39
2017-01-02T11:10:58.891Z,1029.31
2017-01-02T11:11:58.859Z,1029.18
2017-01-02T11:12:58.846Z,1029.1
2017-01-02T11:13:58.835Z,1029.06
2017-01-02T11:14:58.824Z,1028.97
2017-01-02T11:15:58.813Z,1028.94
2017-01-02T11:16:58.802Z,1028.93
2017-01-02T11:17:58.791Z,1028.98
2017-01-02T11:18:58.780Z,1028.91
2017-01-02T11:19:58.769Z,1028.9
2017-01-02T11:20:58.758Z,1028.93
2017-01-02T11:21:58.747Z,1028.91
2017-01-02T11:22:58.737Z,1028.91
2017-01-02T11:23:58.725Z,1028.95
2017-01-02T11:24:58.715Z,1028.98
2017-01-02T11:25:58.704Z,1029.01
2017-01-02T11:26:58.692Z,1029.02
2017-01-02T11:27:58.682Z,1029.1
2017-01-02T11:28:58.671Z,1029.19
2017-01-02T11:29:58.660Z,1029.23
2017-01-02T11:30:58.649Z,1029.3
2017-01-02T11:31:58.638Z,1029.37
2017-01-02T11:32:58.627Z,1029.4
2017-01-02T11:33:58.616Z,1029.43
2017-01-02T11:34:58.606Z,1029.38
2017-01-02T11:35:58.596Z,1029.42
2017-01-02T11:36:58.584Z,1029.55
2017-01-02T11:37:58.572Z,1029.62
2017-01-02T11:38:58.566Z,1029.65
2017-01-02T11:39:58.551Z,1029.7
2017-01-02T11:40:58.540Z,1029.71
2017-01-02T11:41:58.528Z,1029.73
2017-01-02T11:42:58.517Z,1029.75
2017-01-02T11:43:58.507Z,1029.82
2017-01-02T11:44:58.495Z,1029.92
2017-01-02T11:45:58.484Z,1029.95
2017-01-02T11:46:58.473Z,1030
2017-01-02T11:47:58.462Z,1030.05
2017-01-02T11:48:58.450Z,1030.07
2017-01-02T11:49:58.440Z,1030.07
2017-01-02T11:50:58.428Z,1030.17
2017-01-02T11:51:58.416Z,1030.24
2017-01-02T11:52:58.404Z,1030.25
2017-01-02T11:53:58.393Z,1030.28
2017-01-02T11:54:58.384Z,1030.26
2017-01-02T11:55:58.370Z,1030.25
2017-01-02T11:56:58.358Z,1030.24
2017-01-02T11:57:58.347Z,1030.19
2017-01-02T11:58:58.336Z,1030.19
2017-01-02T11:59:58.323Z,1030.16
2017-01-02T12:00:58.311Z,1030.12
2017-01-02T12:01:58.300Z,1030.07
2017-01-02T12:02:58.289Z,1030.13
2017-01-02T12:03:58.277Z,1030.21
2017-01-02T12:04:58.265Z,1030.29
2017-01-02T12:05:58.254Z,1030.32
2017-01-02T12:06:58.241Z,1030.35
2017-01-02T12:07:58.230Z,1030.32
2017-01-02T12:08:58.219Z,1030.32
2017-01-02T12:09:58.207Z,1030.26
2017-01-02T12:10:58.194Z,1030.23
2017-01-02T12:11:58.186Z,1030.24
2017-01-02T12:12:58.172Z,1030.21
2017-01-02T12:13:58.161Z,1030.18
2017-01-02T12:14:58.148Z,1030.19
2017-01-02T12:15:58.136Z,1030.18
2017-01-02T12:16:58.125Z,1030.26
2017-01-02T12:17:58.113Z,1030.19
2017-01-02T12:18:58.101Z,1030.21
2017-01-02T12:19:58.090Z,1030.2
2017-01-02T12:20:58.078Z,1030.16
2017-01-02T12:21:58.066Z,1030.11
2017-01-02T12:22:58.055Z,1030.09
2017-01-02T12:23:58.043Z,1030.11
2017-01-02T12:24:58.031Z,1030.08
2017-01-02T12:25:58.019Z,1030.07
2017-01-02T12:26:58.011Z,1029.99
2017-01-02T12:27:57.996Z,1029.96
2017-01-02T12:28:57.984Z,1029.95
2017-01-02T12:29:57.972Z,1029.98
2017-01-02T12:30:57.961Z,1029.96
2017-01-02T12:31:57.949Z,1029.94
2017-01-02T12:32:57.937Z,1029.93
2017-01-02T12:33:57.926Z,1029.88
2017-01-02T12:34:57.914Z,1029.85
2017-01-02T12:35:57.903Z,1029.81
2017-01-02T12:36:57.890Z,1029.84
2017-01-02T12:37:57.880Z,1029.86
2017-01-02T12:38:57.868Z,1029.88
2017-01-02T12:39:57.856Z,1029.84
2017-01-02T12:40:57.845Z,1029.76
2017-01-02T12:41:57.833Z,1029.72
2017-01-02T12:42:57.822Z,1029.7
2017-01-02T12:43:57.811Z,1029.65
2017-01-02T12:44:57.798Z,1029.65
2017-01-02T12:45:57.787Z,1029.61
2017-01-02T12:46:57.776Z,1029.59
2017-01-02T12:47:57.764Z,1029.59
2017-01-02T12:48:57.753Z,1029.53
2017-01-02T12:49:57.742Z,1029.52
2017-01-02T12:50:57.730Z,1029.53
2017-01-02T12:51:57.719Z,1029.44
2017-01-02T12:52:57.708Z,1029.51
2017-01-02T12:53:57.697Z,1029.53
2017-01-02T12:54:57.687Z,1029.56
2017-01-02T12:55:57.673Z,1029.58
2017-01-02T12:56:57.664Z,1029.61
2017-01-02T12:57:57.651Z,1029.67
2017-01-02T12:58:57.640Z,1029.73
2017-01-02T12:59:57.630Z,1029.83
2017-01-02T13:00:57.618Z,1029.86
2017-01-02T13:01:57.609Z,1029.99
2017-01-02T13:02:57.595Z,1029.97
2017-01-02T13:03:57.584Z,1029.98
2017-01-02T13:04:57.573Z,1030.03
2017-01-02T13:05:57.561Z,1030.03
2017-01-02T13:06:57.550Z,1030.02
2017-01-02T13:07:57.539Z,1029.99
2017-01-02T13:08:57.528Z,1030.02
2017-01-02T13:09:57.517Z,1030.07
2017-01-02T13:10:57.507Z,1030.04
2017-01-02T13:11:57.495Z,1030.11
2017-01-02T13:12:57.483Z,1030.14
2017-01-02T13:13:57.473Z,1030.17
2017-01-02T13:14:57.461Z,1030.17
2017-01-02T13:15:57.450Z,1030.22
2017-01-02T13:16:57.438Z,1030.29
2017-01-02T13:17:57.427Z,1030.3
2017-01-02T13:18:57.415Z,1030.36
2017-01-02T13:19:57.403Z,1030.44
2017-01-02T13:20:57.392Z,1030.45
2017-01-02T13:21:57.381Z,1030.5
2017-01-02T13:22:57.372Z,1030.59
2017-01-02T13:23:57.357Z,1030.69
2017-01-02T13:24:57.347Z,1030.85
2017-01-02T13:25:57.335Z,1030.95
2017-01-02T13:26:57.323Z,1031.06
2017-01-02T13:27:57.311Z,1031.11
2017-01-02T13:28:57.300Z,1031.28
2017-01-02T13:29:57.288Z,1031.43
2017-01-02T13:30:57.276Z,1031.6
2017-01-02T13:31:57.264Z,1031.76
2017-01-02T13:32:57.253Z,1031.89
2017-01-02T13:33:57.242Z,1031.89
2017-01-02T13:34:57.229Z,1031.92
2017-01-02T13:35:57.219Z,1031.9
2017-01-02T13:36:57.205Z,1031.95
2017-01-02T13:37:57.193Z,1031.92
2017-01-02T13:38:57.181Z,1031.93
2017-01-02T13:39:57.170Z,1031.9
2017-01-02T13:40:57.157Z,1031.88
2017-01-02T13:41:57.145Z,1031.85
2017-01-02T13:42:57.133Z,1031.9
2017-01-02T13:43:57.121Z,1031.94
2017-01-02T13:44:57.108Z,1031.96
2017-01-02T13:45:57.095Z,1032
2017-01-02T13:46:57.084Z,1032.09
2017-01-02T13:47:57.072Z,1032.08
2017-01-02T13:48:57.060Z,1032.12
2017-01-02T13:49:57.047Z,1032.17
2017-01-02T13:50:57.034Z,1032.19
2017-01-02T13:51:57.024Z,1032.26
2017-01-02T13:52:57.010Z,1032.31
2017-01-02T13:53:56.997Z,1032.35
2017-01-02T13:54:56.985Z,1032.38
2017-01-02T13:55:56.973Z,1032.46
2017-01-02T13:56:56.960Z,1032.47
2017-01-02T13:57:56.948Z,1032.47
2017-01-02T13:58:56.936Z,1032.45
2017-01-02T13:59:56.925Z,1032.48
2017-01-02T14:00:56.910Z,1032.46
2017-01-02T14:01:56.898Z,1032.46
2017-01-02T14:02:56.886Z,1032.46
2017-01-02T14:03:56.873Z,1032.43
2017-01-02T14:04:56.861Z,1032.37
2017-01-02T14:05:56.848Z,1032.28
2017-01-02T14:06:56.836Z,1032.26
2017-01-02T14:07:56.824Z,1032.28
2017-01-02T14:08:56.811Z,1032.26
2017-01-02T14:09:56.797Z,1032.31
2017-01-02T14:10:56.785Z,1032.3
2017-01-02T14:11:56.772Z,1032.32
2017-01-02T14:12:56.761Z,1032.31
2017-01-02T14:13:56.747Z,1032.3
2017-01-02T14:14:56.734Z,1032.31
2017-01-02T14:15:56.722Z,1032.33
2017-01-02T14:16:56.709Z,1032.34
2017-01-02T14:17:56.697Z,1032.33
2017-01-02T14:18:56.683Z,1032.34
2017-01-02T14:19:56.671Z,1032.32
2017-01-02T14:20:56.659Z,1032.34
2017-01-02T14:21:56.647Z,1032.3
2017-01-02T14:22:56.633Z,1032.29
2017-01-02T14:23:56.621Z,1032.25
2017-01-02T14:24:56.609Z,1032.23
2017-01-02T14:25:56.596Z,1032.27
2017-01-02T14:26:56.585Z,1032.26
2017-01-02T14:27:56.571Z,1032.3
2017-01-02T14:28:56.560Z,1032.32
2017-01-02T14:29:56.545Z,1032.31
2017-01-02T14:30:56.533Z,1032.34
2017-01-02T14:31:56.520Z,1032.37
2017-01-02T14:32:56.508Z,1032.38
2017-01-02T14:33:56.495Z,1032.41
2017-01-02T14:34:56.483Z,1032.46
2017-01-02T14:35:56.470Z,1032.48
2017-01-02T14:36:56.457Z,1032.48
2017-01-02T14:37:56.444Z,1032.5
2017-01-02T14:38:56.432Z,1032.54
2017-01-02T14:39:56.420Z,1032.53
2017-01-02T14:40:56.406Z,1032.54
2017-01-02T14:41:56.394Z,1032.56
2017-01-02T14:42:56.382Z,1032.58
2017-01-02T14:43:56.369Z,1032.62
2017-01-02T14:44:56.358Z,1032.6
2017-01-02T14:45:56.345Z,1032.63
2017-01-02T14:46:56.332Z,1032.6
2017-01-02T14:47:56.319Z,1032.64
2017-01-02T14:48:56.308Z,1032.63
2017-01-02T14:49:56.294Z,1032.68
2017-01-02T14:50:56.282Z,1032.72
2017-01-02T14:51:56.269Z,1032.75
2017-01-02T14:52:56.256Z,1032.76
2017-01-02T14:53:56.244Z,1032.72
2017-01-02T14:54:56.231Z,1032.78
2017-01-02T14:55:56.218Z,1032.75
2017-01-02T14:56:56.206Z,1032.78
2017-01-02T14:57:56.194Z,1032.78
2017-01-02T14:58:56.180Z,1032.74
2017-01-02T14:59:56.168Z,1032.77
2017-01-02T15:00:56.156Z,1032.77
2017-01-02T15:01:56.143Z,1032.76
2017-01-02T15:02:56.130Z,1032.75
2017-01-02T15:03:56.118Z,1032.8
2017-01-02T15:04:56.105Z,1032.88
2017-01-02T15:05:56.091Z,1033
2017-01-02T15:06:56.079Z,1033.05
2017-01-02T15:07:56.067Z,1033.09
2017-01-02T15:08:56.054Z,1033.19
2017-01-02T15:09:56.041Z,1033.28
2017-01-02T15:10:56.029Z,1033.36
2017-01-02T15:11:56.017Z,1033.44
2017-01-02T15:12:56.005Z,1033.53
2017-01-02T15:13:55.990Z,1033.6
2017-01-02T15:14:55.977Z,1033.65
2017-01-02T15:15:55.964Z,1033.72
2017-01-02T15:16:55.950Z,1033.79
2017-01-02T15:17:55.938Z,1033.82
2017-01-02T15:18:55.928Z,1033.86
2017-01-02T15:19:55.915Z,1033.92
2017-01-02T15:20:55.898Z,1033.94
2017-01-02T15:21:55.885Z,1034.03
2017-01-02T15:22:55.874Z,1034.05
2017-01-02T15:23:55.860Z,1034.1
2017-01-02T15:24:55.846Z,1034.15
2017-01-02T15:25:55.832Z,1034.18
2017-01-02T15:26:55.819Z,1034.25
2017-01-02T15:27:55.805Z,1034.26
2017-01-02T15:28:55.792Z,1034.31
2017-01-02T15:29:55.779Z,1034.36
2017-01-02T15:30:55.766Z,1034.43
2017-01-02T15:31:55.751Z,1034.47
2017-01-02T15:32:55.738Z,1034.48
2017-01-02T15:33:55.725Z,1034.5
2017-01-02T15:34:55.712Z,1034.5
2017-01-02T15:35:55.697Z,1034.48
2017-01-02T15:36:55.683Z,1034.51
2017-01-02T15:37:55.670Z,1034.53
2017-01-02T15:38:55.655Z,1034.58
2017-01-02T15:39:55.642Z,1034.6
2017-01-02T15:40:55.628Z,1034.59
2017-01-02T15:41:55.615Z,1034.56
2017-01-02T15:42:55.600Z,1034.62
2017-01-02T15:43:55.586Z,1034.62
2017-01-02T15:44:55.573Z,1034.62
2017-01-02T15:45:55.559Z,1034.59
2017-01-02T15:46:55.544Z,1034.55
2017-01-02T15:47:55.530Z,1034.58
2017-01-02T15:48:55.519Z,1034.59
2017-01-02T15:49:55.502Z,1034.62
2017-01-02T15:50:55.488Z,1034.65
2017-01-02T15:51:55.475Z,1034.72
2017-01-02T15:52:55.461Z,1034.71
2017-01-02T15:53:55.446Z,1034.71
2017-01-02T15:54:55.433Z,1034.76
2017-01-02T15:55:55.419Z,1034.74
2017-01-02T15:56:55.406Z,1034.76
2017-01-02T15:57:55.391Z,1034.77
2017-01-02T15:58:55.377Z,1034.75
2017-01-02T15:59:55.363Z,1034.72
2017-01-02T16:00:55.350Z,1034.73
2017-01-02T16:01:55.335Z,1034.73
2017-01-02T16:02:55.321Z,1034.79
2017-01-02T16:03:55.307Z,1034.81
2017-01-02T16:04:55.292Z,1034.86
2017-01-02T16:05:55.278Z,1034.89
2017-01-02T16:06:55.265Z,1034.96
2017-01-02T16:07:55.251Z,1035.04
2017-01-02T16:08:55.236Z,1035.08
2017-01-02T16:09:55.222Z,1035.11
2017-01-02T16:10:55.208Z,1035.15
2017-01-02T16:11:55.193Z,1035.22
2017-01-02T16:12:55.180Z,1035.23
2017-01-02T16:13:55.166Z,1035.29
2017-01-02T16:14:55.152Z,1035.34
2017-01-02T16:15:55.137Z,1035.38
2017-01-02T16:16:55.122Z,1035.42
2017-01-02T16:17:55.109Z,1035.43
2017-01-02T16:18:55.095Z,1035.44
2017-01-02T16:19:55.081Z,1035.52
2017-01-02T16:20:55.067Z,1035.56
2017-01-02T16:21:55.053Z,1035.62
2017-01-02T16:22:55.039Z,1035.63
2017-01-02T16:23:55.024Z,1035.7
2017-01-02T16:24:55.010Z,1035.72
2017-01-02T16:25:54.996Z,1035.71
2017-01-02T16:26:54.980Z,1035.7
2017-01-02T16:27:54.966Z,1035.67
2017-01-02T16:28:54.952Z,1035.6
2017-01-02T16:29:54.937Z,1035.58
2017-01-02T16:30:54.923Z,1035.58
2017-01-02T16:31:54.909Z,1035.55
2017-01-02T16:32:54.894Z,1035.53
2017-01-02T16:33:54.879Z,1035.58
2017-01-02T16:34:54.865Z,1035.65
2017-01-02T16:35:54.851Z,1035.64
2017-01-02T16:36:54.836Z,1035.74
2017-01-02T16:37:54.821Z,1035.79
2017-01-02T16:38:54.807Z,1035.83
2017-01-02T16:39:54.793Z,1035.82
2017-01-02T16:40:54.777Z,1035.88
2017-01-02T16:41:54.763Z,1035.89
2017-01-02T16:42:54.748Z,1035.94
2017-01-02T16:43:54.734Z,1035.98
2017-01-02T16:44:54.720Z,1035.97
2017-01-02T16:45:54.704Z,1036.01
2017-01-02T16:46:54.690Z,1036
2017-01-02T16:47:54.675Z,1036.04
2017-01-02T16:48:54.660Z,1036.08
2017-01-02T16:49:54.646Z,1036.09
2017-01-02T16:50:54.631Z,1036.16
2017-01-02T16:51:54.616Z,1036.17
2017-01-02T16:52:54.601Z,1036.17
2017-01-02T16:53:54.587Z,1036.22
2017-01-02T16:54:54.572Z,1036.25
2017-01-02T16:55:54.557Z,1036.29
2017-01-02T16:56:54.546Z,1036.29
2017-01-02T16:57:54.528Z,1036.33
2017-01-02T16:58:54.512Z,1036.35
2017-01-02T16:59:54.497Z,1036.36
2017-01-02T17:00:54.483Z,1036.36
2017-01-02T17:01:54.468Z,1036.4
2017-01-02T17:02:54.452Z,1036.43
2017-01-02T17:03:54.437Z,1036.48
2017-01-02T17:04:54.423Z,1036.52
2017-01-02T17:05:54.410Z,1036.52
2017-01-02T17:06:54.392Z,1036.52
2017-01-02T17:07:54.377Z,1036.56
2017-01-02T17:08:54.364Z,1036.59
2017-01-02T17:09:54.348Z,1036.63
2017-01-02T17:10:54.332Z,1036.62
2017-01-02T17:11:54.317Z,1036.64
2017-01-02T17:12:54.304Z,1036.61
2017-01-02T17:13:54.288Z,1036.66
2017-01-02T17:14:54.272Z,1036.66
2017-01-02T17:15:54.257Z,1036.7
2017-01-02T17:16:54.243Z,1036.7
2017-01-02T17:17:54.226Z,1036.68
2017-01-02T17:18:54.211Z,1036.68
2017-01-02T17:19:54.196Z,1036.73
2017-01-02T17:20:54.182Z,1036.73
2017-01-02T17:21:54.167Z,1036.75
2017-01-02T17:22:54.151Z,1036.77
2017-01-02T17:23:54.135Z,1036.8
2017-01-02T17:24:54.119Z,1036.81
2017-01-02T17:25:54.104Z,1036.82
2017-01-02T17:26:54.089Z,1036.85
2017-01-02T17:27:54.075Z,1036.87
2017-01-02T17:28:54.058Z,1036.88
2017-01-02T17:29:54.043Z,1036.9
2017-01-02T17:30:54.028Z,1036.9
2017-01-02T17:31:54.013Z,1036.93
2017-01-02T17:32:53.998Z,1036.98
2017-01-02T17:33:53.982Z,1037.01
2017-01-02T17:34:53.967Z,1036.99
2017-01-02T17:35:53.951Z,1037.02
2017-01-02T17:36:53.936Z,1037.02
2017-01-02T17:37:53.922Z,1037.04
2017-01-02T17:38:53.905Z,1037.06
2017-01-02T17:39:53.889Z,1037.09
2017-01-02T17:40:53.874Z,1037.02
2017-01-02T17:41:53.859Z,1037.02
2017-01-02T17:42:53.844Z,1037.04
2017-01-02T17:43:53.828Z,1037.05
2017-01-02T17:44:53.813Z,1037.07
2017-01-02T17:45:53.799Z,1037.06
2017-01-02T17:46:53.781Z,1037.08
2017-01-02T17:47:53.766Z,1037.12
2017-01-02T17:48:53.751Z,1037.14
2017-01-02T17:49:53.736Z,1037.15
2017-01-02T17:50:53.720Z,1037.19
2017-01-02T17:51:53.704Z,1037.17
2017-01-02T17:52:53.689Z,1037.18
2017-01-02T17:53:53.674Z,1037.19
2017-01-02T17:54:53.659Z,1037.19
2017-01-02T17:55:53.644Z,1037.22
2017-01-02T17:56:53.628Z,1037.25
2017-01-02T17:57:53.612Z,1037.31
2017-01-02T17:58:53.597Z,1037.32
2017-01-02T17:59:53.583Z,1037.32
2017-01-02T18:00:53.567Z,1037.36
2017-01-02T18:01:53.552Z,1037.39
2017-01-02T18:02:53.535Z,1037.41
2017-01-02T18:03:53.521Z,1037.42
2017-01-02T18:04:53.504Z,1037.44
2017-01-02T18:05:53.488Z,1037.45
2017-01-02T18:06:53.473Z,1037.48
2017-01-02T18:07:53.457Z,1037.52
2017-01-02T18:08:53.443Z,1037.53
2017-01-02T18:09:53.426Z,1037.55
2017-01-02T18:10:53.411Z,1037.57
2017-01-02T18:11:53.396Z,1037.62
2017-01-02T18:12:53.379Z,1037.63
2017-01-02T18:13:53.363Z,1037.66
2017-01-02T18:14:53.348Z,1037.66
2017-01-02T18:15:53.332Z,1037.71
2017-01-02T18:16:53.316Z,1037.73
2017-01-02T18:17:53.301Z,1037.72
2017-01-02T18:18:53.286Z,1037.77
2017-01-02T18:19:53.270Z,1037.75
2017-01-02T18:20:53.255Z,1037.75
2017-01-02T18:21:53.238Z,1037.72
2017-01-02T18:22:53.223Z,1037.78
2017-01-02T18:23:53.207Z,1037.82
2017-01-02T18:24:53.191Z,1037.84
2017-01-02T18:25:53.176Z,1037.85
2017-01-02T18:26:53.160Z,1037.87
2017-01-02T18:27:53.144Z,1037.91
2017-01-02T18:28:53.128Z,1037.92
2017-01-02T18:29:53.113Z,1037.92
2017-01-02T18:30:53.098Z,1037.85
2017-01-02T18:31:53.081Z,1037.87
2017-01-02T18:32:53.065Z,1037.93
2017-01-02T18:33:53.050Z,1037.93
2017-01-02T18:34:53.033Z,1037.94
2017-01-02T18:35:53.018Z,1037.93
2017-01-02T18:36:53.003Z,1037.94
2017-01-02T18:37:52.986Z,1037.9
2017-01-02T18:38:52.973Z,1037.92
2017-01-02T18:39:52.958Z,1037.94
2017-01-02T18:40:52.942Z,1037.91
2017-01-02T18:41:52.923Z,1037.88
2017-01-02T18:42:52.908Z,1037.88
2017-01-02T18:43:52.893Z,1037.88
2017-01-02T18:44:52.877Z,1037.89
2017-01-02T18:45:52.862Z,1037.96
2017-01-02T18:46:52.847Z,1037.92
2017-01-02T18:47:52.831Z,1037.92
2017-01-02T18:48:52.813Z,1037.93
2017-01-02T18:49:52.798Z,1037.98
2017-01-02T18:50:52.782Z,1037.98
2017-01-02T18:51:52.767Z,1037.96
2017-01-02T18:52:52.751Z,1037.96
2017-01-02T18:53:52.735Z,1037.95
2017-01-02T18:54:52.720Z,1037.92
2017-01-02T18:55:52.704Z,1037.88
2017-01-02T18:56:52.688Z,1037.91
2017-01-02T18:57:52.672Z,1037.9
2017-01-02T18:58:52.657Z,1037.87
2017-01-02T18:59:52.640Z,1037.86
2017-01-02T19:00:52.625Z,1037.87
2017-01-02T19:01:52.609Z,1037.92
2017-01-02T19:02:52.593Z,1037.9
2017-01-02T19:03:52.577Z,1037.93
2017-01-02T19:04:52.561Z,1037.94
2017-01-02T19:05:52.546Z,1037.95
2017-01-02T19:06:52.531Z,1037.95
2017-01-02T19:07:52.514Z,1037.98
2017-01-02T19:08:52.498Z,1037.95
2017-01-02T19:09:52.483Z,1037.94
2017-01-02T19:10:52.466Z,1037.94
2017-01-02T19:11:52.451Z,1037.95
2017-01-02T19:12:52.435Z,1037.96
2017-01-02T19:13:52.420Z,1037.97
2017-01-02T19:14:52.403Z,1037.96
2017-01-02T19:15:52.388Z,1037.97
2017-01-02T19:16:52.372Z,1038
2017-01-02T19:17:52.356Z,1037.98
2017-01-02T19:18:52.340Z,1038.05
2017-01-02T19:19:52.325Z,1038.04
2017-01-02T19:20:52.309Z,1038.05
2017-01-02T19:21:52.292Z,1038.05
2017-01-02T19:22:52.276Z,1038.1
2017-01-02T19:23:52.261Z,1038.14
2017-01-02T19:24:52.246Z,1038.13
2017-01-02T19:25:52.230Z,1038.17
2017-01-02T19:26:52.213Z,1038.12
2017-01-02T19:27:52.198Z,1038.15
2017-01-02T19:28:52.183Z,1038.16
2017-01-02T19:29:52.166Z,1038.23
2017-01-02T19:30:52.150Z,1038.22
2017-01-02T19:31:52.137Z,1038.25
2017-01-02T19:32:52.118Z,1038.22
2017-01-02T19:33:52.102Z,1038.24
2017-01-02T19:34:52.086Z,1038.25
2017-01-02T19:35:52.071Z,1038.27
2017-01-02T19:36:52.054Z,1038.33
2017-01-02T19:37:52.038Z,1038.3
2017-01-02T19:38:52.022Z,1038.32
2017-01-02T19:39:52.007Z,1038.34
2017-01-02T19:40:51.991Z,1038.36
2017-01-02T19:41:51.974Z,1038.34
2017-01-02T19:42:51.959Z,1038.3
2017-01-02T19:43:51.941Z,1038.3
2017-01-02T19:44:51.926Z,1038.31
2017-01-02T19:45:51.909Z,1038.32
2017-01-02T19:46:51.893Z,1038.33
2017-01-02T19:47:51.876Z,1038.38
2017-01-02T19:48:51.861Z,1038.39
2017-01-02T19:49:51.845Z,1038.36
2017-01-02T19:50:51.830Z,1038.37
2017-01-02T19:51:51.812Z,1038.37
2017-01-02T19:52:51.803Z,1038.38
2017-01-02T19:53:51.781Z,1038.39
2017-01-02T19:54:51.764Z,1038.39
2017-01-02T19:55:51.754Z,1038.37
2017-01-02T19:56:51.733Z,1038.38
2017-01-02T19:57:51.722Z,1038.44
2017-01-02T19:58:51.707Z,1038.45
2017-01-02T19:59:51.683Z,1038.46
2017-01-02T20:00:51.669Z,1038.45
2017-01-02T20:01:51.664Z,1038.47
2017-01-02T20:02:51.637Z,1038.47
2017-01-02T20:03:51.629Z,1038.53
2017-01-02T20:04:51.615Z,1038.51
2017-01-02T20:05:51.586Z,1038.53
2017-01-02T20:06:51.571Z,1038.56
2017-01-02T20:07:51.555Z,1038.61
2017-01-02T20:08:51.544Z,1038.57
2017-01-02T20:09:51.531Z,1038.6
2017-01-02T20:10:51.506Z,1038.55
2017-01-02T20:11:51.490Z,1038.58
2017-01-02T20:12:51.473Z,1038.59
2017-01-02T20:13:51.458Z,1038.57
2017-01-02T20:14:51.442Z,1038.57
2017-01-02T20:15:51.433Z,1038.6
2017-01-02T20:16:51.422Z,1038.62
2017-01-02T20:17:51.393Z,1038.55
2017-01-02T20:18:51.387Z,1038.63
2017-01-02T20:19:51.374Z,1038.58
2017-01-02T20:20:51.360Z,1038.61
2017-01-02T20:21:51.328Z,1038.63
2017-01-02T20:22:51.328Z,1038.59
2017-01-02T20:23:51.295Z,1038.62
2017-01-02T20:24:51.294Z,1038.6
2017-01-02T20:25:51.275Z,1038.58
2017-01-02T20:26:51.248Z,1038.54
2017-01-02T20:27:51.231Z,1038.57
2017-01-02T20:28:51.224Z,1038.55
2017-01-02T20:29:51.199Z,1038.58
2017-01-02T20:30:51.191Z,1038.57
2017-01-02T20:31:51.180Z,1038.58
2017-01-02T20:32:51.162Z,1038.68
2017-01-02T20:33:51.144Z,1038.67
2017-01-02T20:34:51.121Z,1038.7
2017-01-02T20:35:51.101Z,1038.69
2017-01-02T20:36:51.091Z,1038.65
2017-01-02T20:37:51.074Z,1038.67
2017-01-02T20:38:51.052Z,1038.66
2017-01-02T20:39:51.035Z,1038.59
2017-01-02T20:40:51.021Z,1038.61
2017-01-02T20:41:51.010Z,1038.64
2017-01-02T20:42:50.987Z,1038.64
2017-01-02T20:43:50.970Z,1038.6
2017-01-02T20:44:50.962Z,1038.68
2017-01-02T20:45:50.938Z,1038.67
2017-01-02T20:46:50.929Z,1038.69
2017-01-02T20:47:50.912Z,1038.75
2017-01-02T20:48:50.896Z,1038.74
2017-01-02T20:49:50.873Z,1038.75
2017-01-02T20:50:50.866Z,1038.74
2017-01-02T20:51:50.841Z,1038.73
2017-01-02T20:52:50.829Z,1038.69
2017-01-02T20:53:50.808Z,1038.66
2017-01-02T20:54:50.799Z,1038.7
2017-01-02T20:55:50.776Z,1038.67
2017-01-02T20:56:50.767Z,1038.67
2017-01-02T20:57:50.743Z,1038.62
2017-01-02T20:58:50.728Z,1038.57
2017-01-02T20:59:50.712Z,1038.57
2017-01-02T21:00:50.697Z,1038.57
2017-01-02T21:01:50.679Z,1038.59
2017-01-02T21:02:50.663Z,1038.63
2017-01-02T21:03:50.647Z,1038.67
2017-01-02T21:04:50.635Z,1038.64
2017-01-02T21:05:50.615Z,1038.62
2017-01-02T21:06:50.599Z,1038.64
2017-01-02T21:07:50.582Z,1038.67
2017-01-02T21:08:50.565Z,1038.62
2017-01-02T21:09:50.551Z,1038.64
2017-01-02T21:10:50.534Z,1038.63
2017-01-02T21:11:50.517Z,1038.59
2017-01-02T21:12:50.500Z,1038.53
2017-01-02T21:13:50.485Z,1038.56
2017-01-02T21:14:50.470Z,1038.51
2017-01-02T21:15:50.452Z,1038.56
2017-01-02T21:16:50.436Z,1038.62
2017-01-02T21:17:50.419Z,1038.61
2017-01-02T21:18:50.403Z,1038.65
2017-01-02T21:19:50.387Z,1038.6
2017-01-02T21:20:50.371Z,1038.6
2017-01-02T21:21:50.355Z,1038.56
2017-01-02T21:22:50.338Z,1038.57
2017-01-02T21:23:50.322Z,1038.55
2017-01-02T21:24:50.306Z,1038.56
2017-01-02T21:25:50.289Z,1038.55
2017-01-02T21:26:50.273Z,1038.52
2017-01-02T21:27:50.257Z,1038.55
2017-01-02T21:28:50.241Z,1038.55
2017-01-02T21:29:50.225Z,1038.53
2017-01-02T21:30:50.208Z,1038.51
2017-01-02T21:31:50.192Z,1038.55
2017-01-02T21:32:50.176Z,1038.47
2017-01-02T21:33:50.159Z,1038.48
2017-01-02T21:34:50.143Z,1038.46
2017-01-02T21:35:50.128Z,1038.46
2017-01-02T21:36:50.110Z,1038.49
2017-01-02T21:37:50.098Z,1038.44
2017-01-02T21:38:50.078Z,1038.46
2017-01-02T21:39:50.062Z,1038.51
2017-01-02T21:40:50.045Z,1038.48
2017-01-02T21:41:50.030Z,1038.48
2017-01-02T21:42:50.013Z,1038.45
2017-01-02T21:43:49.997Z,1038.49
2017-01-02T21:44:49.980Z,1038.43
2017-01-02T21:45:49.964Z,1038.44
2017-01-02T21:46:49.948Z,1038.4
2017-01-02T21:47:49.931Z,1038.38
2017-01-02T21:48:49.915Z,1038.4
2017-01-02T21:49:49.899Z,1038.41
2017-01-02T21:50:49.883Z,1038.4
2017-01-02T21:51:49.867Z,1038.44
2017-01-02T21:52:49.851Z,1038.42
2017-01-02T21:53:49.834Z,1038.41
2017-01-02T21:54:49.818Z,1038.42
2017-01-02T21:55:49.802Z,1038.38
2017-01-02T21:56:49.785Z,1038.38
2017-01-02T21:57:49.769Z,1038.36
2017-01-02T21:58:49.752Z,1038.36
2017-01-02T21:59:49.736Z,1038.35
2017-01-02T22:00:49.723Z,1038.32
2017-01-02T22:01:49.703Z,1038.31
2017-01-02T22:02:49.686Z,1038.25
2017-01-02T22:03:49.670Z,1038.21
2017-01-02T22:04:49.654Z,1038.23
2017-01-02T22:05:49.638Z,1038.19
2017-01-02T22:06:49.621Z,1038.15
2017-01-02T22:07:49.605Z,1038.14